Terminal Aerodrome Forecast
Issued by NWS

Home | Current Version | Previous Version | Text Only | Print | Product List | Glossary On
Versions: 1 2 3 4 5 6 7 8 9 10 11 12 13
000
FTUS46 KSGX 190500
TAFCRQ
TAF
KCRQ 190534Z 1906/2006 VRB04KT P6SM OVC015
     FM191800 26009KT P6SM SCT020
     FM200000 VRB04KT P6SM OVC020=

USA.gov is the U.S. government's official web portal to all federal, state and local government web resources and services.